Time;durP1;ratioP1;P1;durP2;ratioP2;P2;SDS_P1;SDS_P2;PMS_P1;PMS_P2;Temp;Humidity;BMP_temperature;BMP_pressure;BME280_temperature;BME280_humidity;BME280_pressure;Samples;Min_cycle;Max_cycle;Signal;HPM_P1;HPM_P2
2021/08/03 00:00:32;;;;;;;;;5.75;5.75;;;;;18.18;76.89;101080.53;5031192;28;45491;-77
2021/08/03 00:02:58;;;;;;;;;5.25;5.25;;;;;18.17;76.28;101083.41;5023273;28;45572;-77
2021/08/03 00:05:27;;;;;;;;;6.50;5.00;;;;;18.13;76.76;101077.63;5026178;28;45731;-77
2021/08/03 00:08:01;;;;;;;;;5.50;4.50;;;;;18.12;76.45;101070.59;5023835;28;45593;-77
2021/08/03 00:10:28;;;;;;;;;4.50;4.50;;;;;18.09;76.37;101076.34;5023628;28;45562;-77
2021/08/03 00:12:54;;;;;;;;;6.25;5.00;;;;;18.08;76.33;101076.53;5026340;28;50541;-78
2021/08/03 00:15:23;;;;;;;;;5.00;4.50;;;;;18.04;76.39;101068.06;5029591;28;45696;-77
2021/08/03 00:17:52;;;;;;;;;6.00;5.50;;;;;18.05;76.25;101072.38;5021753;28;52608;-79
2021/08/03 00:20:18;;;;;;;;;6.00;5.00;;;;;18.05;76.25;101073.22;5023348;28;45513;-78
2021/08/03 00:22:44;;;;;;;;;7.50;6.75;;;;;18.03;76.83;101074.44;5023485;28;45590;-78
2021/08/03 00:25:12;;;;;;;;;7.25;5.75;;;;;18.03;76.83;101069.09;5025910;28;56681;-78
2021/08/03 00:27:38;;;;;;;;;6.00;4.00;;;;;18.01;76.25;101066.59;5009284;28;45494;-79
2021/08/03 00:30:05;;;;;;;;;7.75;6.50;;;;;18.00;76.35;101061.41;5029767;28;45561;-78
2021/08/03 00:32:31;;;;;;;;;8.75;8.00;;;;;18.00;77.22;101066.75;5007749;28;48089;-78
2021/08/03 00:34:56;;;;;;;;;5.50;5.50;;;;;17.98;77.20;101061.63;5024728;28;45499;-78
2021/08/03 00:37:21;;;;;;;;;4.75;4.75;;;;;17.97;77.83;101045.75;5023682;28;58448;-78
2021/08/03 00:39:47;;;;;;;;;7.50;6.50;;;;;18.00;77.24;101051.56;5028037;28;45701;-78
2021/08/03 00:42:12;;;;;;;;;4.25;4.25;;;;;18.02;77.41;101044.16;5028309;28;46068;-78
2021/08/03 00:44:42;;;;;;;;;6.25;6.25;;;;;18.04;77.81;101046.66;5009087;28;45711;-78
2021/08/03 00:47:09;;;;;;;;;8.25;7.75;;;;;18.03;77.25;101042.34;5023481;28;45475;-77
2021/08/03 00:49:34;;;;;;;;;5.75;5.75;;;;;18.02;77.27;101041.50;5024381;28;45813;-78
2021/08/03 00:52:02;;;;;;;;;6.00;6.00;;;;;18.00;77.38;101040.03;5023885;28;45829;-78
2021/08/03 00:54:27;;;;;;;;;7.00;6.50;;;;;17.98;77.24;101032.22;5029572;28;45360;-78
2021/08/03 00:56:53;;;;;;;;;6.25;5.50;;;;;17.95;77.50;101031.75;5023890;28;45705;-78
2021/08/03 00:59:18;;;;;;;;;6.75;5.75;;;;;17.96;77.47;101039.59;5017629;28;45726;-78
2021/08/03 01:01:44;;;;;;;;;6.75;6.75;;;;;17.95;77.77;101031.75;5022908;28;45684;-78
2021/08/03 01:04:11;;;;;;;;;7.25;5.25;;;;;17.95;78.02;101032.59;5025770;28;45680;-78
2021/08/03 01:06:47;;;;;;;;;6.00;5.25;;;;;17.93;77.72;101034.63;5027207;28;45583;-78
2021/08/03 01:09:54;;;;;;;;;8.00;7.00;;;;;17.92;77.93;101034.81;5027387;28;45388;-78
2021/08/03 01:12:45;;;;;;;;;5.25;5.25;;;;;17.91;77.20;101035.84;4943142;28;45499;-78
2021/08/03 01:15:31;;;;;;;;;6.75;6.00;;;;;17.89;77.63;101032.53;4937552;28;45506;-78
2021/08/03 01:18:14;;;;;;;;;7.00;6.00;;;;;17.87;77.09;101034.56;4941276;28;45783;-77
2021/08/03 01:21:05;;;;;;;;;7.25;7.00;;;;;17.86;77.43;101030.22;4945665;28;45605;-78
2021/08/03 01:23:36;;;;;;;;;7.00;6.75;;;;;17.84;77.66;101023.22;4942225;28;46491;-78
2021/08/03 01:26:27;;;;;;;;;6.00;5.75;;;;;17.84;78.00;101020.53;4946374;28;45628;-78
2021/08/03 01:28:58;;;;;;;;;7.50;6.25;;;;;17.84;77.79;101020.53;4948891;28;46157;-78
2021/08/03 01:31:28;;;;;;;;;6.25;6.25;;;;;17.83;78.16;101018.91;4944861;28;45816;-78
2021/08/03 01:34:02;;;;;;;;;4.50;3.75;;;;;17.83;78.15;101010.88;4954759;28;46470;-78
2021/08/03 01:36:28;;;;;;;;;4.75;4.75;;;;;17.84;77.95;101017.88;4946973;28;45751;-78
2021/08/03 01:38:55;;;;;;;;;5.75;5.00;;;;;17.82;78.18;101014.56;4942129;28;45673;-78
2021/08/03 01:41:20;;;;;;;;;6.50;5.00;;;;;17.83;78.29;101010.88;4940975;28;45420;-78
2021/08/03 01:43:48;;;;;;;;;9.50;7.25;;;;;17.84;77.72;101004.50;4949657;28;45640;-78
2021/08/03 01:46:16;;;;;;;;;8.75;7.00;;;;;17.80;77.34;101003.25;4951931;28;45437;-78
2021/08/03 01:48:44;;;;;;;;;4.50;4.50;;;;;17.81;77.78;100996.03;4986884;28;45416;-78
2021/08/03 01:51:10;;;;;;;;;6.00;5.00;;;;;17.79;78.15;100990.84;5008960;28;45451;-78
2021/08/03 01:53:37;;;;;;;;;7.75;7.75;;;;;17.80;78.27;100997.91;5021331;28;46742;-78
2021/08/03 01:56:04;;;;;;;;;8.00;6.00;;;;;17.83;78.21;100996.69;4997499;28;45674;-79
2021/08/03 01:58:31;;;;;;;;;7.25;5.00;;;;;17.83;78.35;100996.69;5021793;28;49333;-78
2021/08/03 02:00:57;;;;;;;;;7.00;5.75;;;;;17.82;78.17;100997.69;5023416;28;45448;-78
2021/08/03 02:03:25;;;;;;;;;7.25;6.75;;;;;17.82;78.09;100995.00;5025718;28;45791;-78
2021/08/03 02:05:52;;;;;;;;;5.25;5.25;;;;;17.83;77.83;101013.56;5020793;28;45560;-78
2021/08/03 02:08:19;;;;;;;;;6.50;6.00;;;;;17.82;77.78;101009.19;5016341;28;45514;-78
2021/08/03 02:10:46;;;;;;;;;7.75;6.50;;;;;17.83;78.34;101013.56;5007076;28;45558;-78
2021/08/03 02:13:14;;;;;;;;;6.75;6.75;;;;;17.84;78.46;101012.53;5025346;28;45399;-78
2021/08/03 02:15:40;;;;;;;;;6.00;5.00;;;;;17.84;77.98;101014.38;5024258;28;58724;-78
2021/08/03 02:18:05;;;;;;;;;6.00;6.00;;;;;17.84;78.02;101015.19;5024236;28;45542;-78
2021/08/03 02:20:31;;;;;;;;;6.50;5.50;;;;;17.85;78.36;101005.31;5006250;28;45577;-78
2021/08/03 02:22:56;;;;;;;;;7.00;7.00;;;;;17.87;78.31;101005.13;5021124;28;46230;-78
2021/08/03 02:25:21;;;;;;;;;6.75;6.75;;;;;17.88;78.29;101007.63;5008068;28;45573;-77
2021/08/03 02:27:47;;;;;;;;;6.00;6.00;;;;;17.88;78.88;101014.81;5022062;28;45658;-78
2021/08/03 02:30:13;;;;;;;;;6.75;6.75;;;;;17.89;78.72;101009.28;5027625;28;45685;-78
2021/08/03 02:33:10;;;;;;;;;6.00;6.00;;;;;17.91;79.08;101009.09;5022245;28;45587;-78
2021/08/03 02:35:45;;;;;;;;;7.50;6.25;;;;;17.91;78.62;101009.09;5025463;28;50977;-78
2021/08/03 02:38:15;;;;;;;;;7.00;5.75;;;;;17.93;78.84;101001.72;5024413;28;45629;-78
2021/08/03 02:40:42;;;;;;;;;8.50;8.25;;;;;17.93;78.67;100999.03;5023422;28;45661;-77
2021/08/03 02:43:10;;;;;;;;;5.00;5.00;;;;;17.93;78.69;100999.88;5025015;28;46115;-78
2021/08/03 02:45:38;;;;;;;;;8.00;8.00;;;;;17.94;78.44;100995.34;5014210;28;46085;-77
2021/08/03 02:48:16;;;;;;;;;12.25;7.25;;;;;17.94;78.88;100993.50;5012265;28;45608;-78
2021/08/03 02:50:44;;;;;;;;;8.00;7.00;;;;;17.94;78.34;100993.50;5027900;28;45643;-78
2021/08/03 02:53:28;;;;;;;;;10.50;7.00;;;;;17.93;79.01;100991.84;5026079;28;45751;-78
2021/08/03 02:56:00;;;;;;;;;8.00;6.75;;;;;17.91;78.70;100991.22;5026660;28;46723;-78
2021/08/03 02:58:32;;;;;;;;;9.00;7.50;;;;;17.90;78.97;100992.22;5013808;28;45519;-78
2021/08/03 03:01:00;;;;;;;;;8.25;7.75;;;;;17.90;79.36;100991.38;5025653;28;45433;-79
2021/08/03 03:03:28;;;;;;;;;9.00;8.50;;;;;17.89;79.17;100989.75;5012421;28;47362;-77
2021/08/03 03:06:02;;;;;;;;;7.00;7.00;;;;;17.91;79.96;100999.22;5003978;28;45788;-78
2021/08/03 03:08:30;;;;;;;;;12.75;8.75;;;;;17.90;79.70;100984.19;5023532;28;45530;-78
2021/08/03 03:10:57;;;;;;;;;9.75;8.00;;;;;17.91;79.31;100983.19;5025216;28;46036;-78
2021/08/03 03:13:47;;;;;;;;;8.00;7.00;;;;;17.93;78.96;100980.34;5008831;28;47541;-78
2021/08/03 03:16:15;;;;;;;;;8.75;7.00;;;;;17.93;79.47;100983.81;5019410;28;45614;-78
2021/08/03 03:18:42;;;;;;;;;11.00;8.50;;;;;17.95;79.32;100983.63;5030827;28;46140;-78
2021/08/03 03:21:09;;;;;;;;;8.00;6.25;;;;;17.94;79.13;100977.44;5027143;28;45556;-78
2021/08/03 03:23:35;;;;;;;;;8.00;8.00;;;;;17.97;79.13;100971.69;5024899;28;46302;-78
2021/08/03 03:26:02;;;;;;;;;6.75;6.75;;;;;17.98;79.59;100973.38;5009518;28;46274;-78
2021/08/03 03:28:31;;;;;;;;;11.00;8.00;;;;;18.00;79.87;100975.84;5024011;28;45622;-78
2021/08/03 03:30:58;;;;;;;;;11.25;9.00;;;;;18.01;79.26;100983.69;5026951;28;45826;-78
2021/08/03 03:33:24;;;;;;;;;8.25;7.25;;;;;18.02;80.02;100984.50;5028622;28;45467;-78
2021/08/03 03:35:53;;;;;;;;;8.00;8.00;;;;;18.01;82.12;100972.16;5027063;28;45444;-78
2021/08/03 03:38:23;;;;;;;;;15.25;10.00;;;;;18.02;81.95;100981.84;5023866;28;45598;-79
2021/08/03 03:40:50;;;;;;;;;9.50;9.50;;;;;17.96;83.35;100963.91;5023240;28;45625;-80
2021/08/03 03:43:18;;;;;;;;;9.75;9.00;;;;;17.90;82.80;100961.97;5005826;28;57046;-80
2021/08/03 03:45:59;;;;;;;;;8.75;8.00;;;;;17.82;81.96;100963.75;5009989;28;45592;-80
2021/08/03 03:48:29;;;;;;;;;13.75;9.00;;;;;17.74;81.74;100961.19;5010410;28;45486;-79
2021/08/03 03:51:01;;;;;;;;;12.00;10.00;;;;;17.72;82.03;100967.75;5022607;28;45546;-79
2021/08/03 03:53:41;;;;;;;;;10.00;8.25;;;;;17.69;80.74;100968.94;5003673;28;47380;-79
2021/08/03 03:56:09;;;;;;;;;10.75;10.00;;;;;17.68;81.05;100971.81;5005714;28;45793;-79
2021/08/03 03:58:39;;;;;;;;;8.25;7.75;;;;;17.67;81.19;100980.84;5025315;28;45615;-79
2021/08/03 04:01:04;;;;;;;;;10.25;8.25;;;;;17.64;80.63;100987.41;5006584;28;45586;-80
2021/08/03 04:03:33;;;;;;;;;9.25;9.00;;;;;17.64;80.64;100984.72;5028748;28;47224;-79
2021/08/03 04:06:00;;;;;;;;;14.75;9.00;;;;;17.65;80.72;100986.38;5023255;28;45513;-79
2021/08/03 04:08:25;;;;;;;;;9.50;8.50;;;;;17.65;80.59;100989.03;5004889;28;45905;-79
2021/08/03 04:10:51;;;;;;;;;10.00;8.00;;;;;17.66;80.30;100990.72;5008399;28;45560;-79
2021/08/03 04:13:16;;;;;;;;;7.00;7.00;;;;;17.66;79.93;100993.41;5023704;28;48403;-78
2021/08/03 04:15:41;;;;;;;;;8.75;7.75;;;;;17.67;79.95;100994.22;5027093;28;45465;-79
2021/08/03 04:18:07;;;;;;;;;10.00;8.25;;;;;17.66;80.36;100995.25;5007953;28;45584;-78
2021/08/03 04:20:33;;;;;;;;;11.00;10.00;;;;;17.65;80.08;100994.41;5007912;28;45840;-78
2021/08/03 04:22:58;;;;;;;;;11.50;9.50;;;;;17.63;80.46;100996.44;5024149;28;47028;-78
2021/08/03 04:25:24;;;;;;;;;10.00;10.00;;;;;17.62;80.58;100997.44;5007359;28;45532;-79
2021/08/03 04:27:50;;;;;;;;;10.00;9.00;;;;;17.61;80.75;100999.31;5008360;28;45594;-78
2021/08/03 04:30:17;;;;;;;;;8.00;8.00;;;;;17.59;80.43;100996.00;5017329;28;45576;-78
2021/08/03 04:32:43;;;;;;;;;11.50;9.25;;;;;17.59;80.41;100993.31;5004860;28;47319;-78
2021/08/03 04:35:10;;;;;;;;;10.75;9.75;;;;;17.57;81.23;100981.16;5026808;28;45726;-78
2021/08/03 04:37:43;;;;;;;;;10.25;9.50;;;;;17.57;80.77;100989.19;5006777;28;45575;-78
2021/08/03 04:40:10;;;;;;;;;15.00;8.50;;;;;17.57;80.86;100991.84;5005707;28;45698;-78
2021/08/03 04:42:35;;;;;;;;;11.50;7.75;;;;;17.56;80.56;100983.00;5010961;28;48810;-78
2021/08/03 04:45:01;;;;;;;;;12.50;10.75;;;;;17.54;80.60;100982.38;5023172;28;45509;-78
2021/08/03 04:47:27;;;;;;;;;9.25;8.00;;;;;17.53;80.57;100990.56;5022779;28;45772;-78
2021/08/03 04:49:52;;;;;;;;;11.00;10.00;;;;;17.53;80.75;100987.88;5004513;28;45604;-78
2021/08/03 04:52:18;;;;;;;;;7.75;7.75;;;;;17.51;80.30;100984.59;5027178;28;46719;-77
2021/08/03 04:54:43;;;;;;;;;9.75;8.50;;;;;17.51;80.55;100982.75;5011265;28;45688;-78
2021/08/03 04:57:08;;;;;;;;;13.50;9.25;;;;;17.51;80.52;100981.94;5024749;28;45633;-78
2021/08/03 04:59:34;;;;;;;;;10.00;9.00;;;;;17.50;80.84;100990.94;5025041;28;46004;-78
2021/08/03 05:02:01;;;;;;;;;8.50;8.50;;;;;17.49;80.57;100981.28;5020257;28;45527;-78
2021/08/03 05:04:29;;;;;;;;;11.50;10.00;;;;;17.48;81.08;100974.28;5020783;28;45703;-78
2021/08/03 05:06:55;;;;;;;;;9.00;9.00;;;;;17.46;80.97;100970.94;5022720;28;45496;-78
2021/08/03 05:09:20;;;;;;;;;9.00;8.00;;;;;17.48;80.77;100974.28;5009358;28;45549;-77
2021/08/03 05:11:45;;;;;;;;;9.50;8.50;;;;;17.47;80.86;100968.09;5020841;28;45637;-78
2021/08/03 05:14:11;;;;;;;;;13.00;10.75;;;;;17.49;80.49;100973.28;5022303;28;45630;-78
2021/08/03 05:16:36;;;;;;;;;11.00;9.50;;;;;17.50;80.52;100974.91;5023329;28;45828;-78
2021/08/03 05:19:01;;;;;;;;;10.00;9.75;;;;;17.49;80.75;100979.44;5023626;28;46231;-77
2021/08/03 05:21:27;;;;;;;;;11.50;10.25;;;;;17.51;80.43;100979.25;5029434;28;46160;-77
2021/08/03 05:23:52;;;;;;;;;9.75;8.00;;;;;17.53;80.32;100982.53;5023173;28;45477;-78
2021/08/03 05:26:17;;;;;;;;;10.25;10.00;;;;;17.53;80.51;100982.53;5021719;28;45516;-77
2021/08/03 05:28:43;;;;;;;;;11.25;11.00;;;;;17.54;80.64;100981.53;5023525;28;45412;-78
2021/08/03 05:31:08;;;;;;;;;9.25;8.25;;;;;17.55;80.02;100983.19;5023407;28;47018;-79
2021/08/03 05:33:33;;;;;;;;;9.25;8.25;;;;;17.61;80.37;100982.44;5010693;28;45643;-77
2021/08/03 05:35:58;;;;;;;;;7.25;7.00;;;;;17.68;79.99;100994.03;5024425;28;45637;-77
2021/08/03 05:38:24;;;;;;;;;10.25;8.25;;;;;17.76;79.67;100985.88;5008115;28;45568;-78
2021/08/03 05:40:49;;;;;;;;;10.00;8.00;;;;;17.84;80.14;100983.09;5025670;28;46415;-78
2021/08/03 05:43:14;;;;;;;;;12.75;9.75;;;;;17.95;80.47;100979.13;5009620;28;45748;-79
2021/08/03 05:45:41;;;;;;;;;10.00;10.00;;;;;18.03;80.08;100978.97;5025058;28;45379;-78
2021/08/03 05:48:06;;;;;;;;;9.75;8.75;;;;;18.10;79.46;100983.53;5024160;28;45470;-78
2021/08/03 05:50:32;;;;;;;;;10.25;10.25;;;;;18.14;79.68;100982.16;5021923;28;45910;-78
2021/08/03 05:52:57;;;;;;;;;10.25;9.00;;;;;18.15;79.57;100976.63;5022118;28;45521;-78
2021/08/03 05:55:22;;;;;;;;;13.50;10.50;;;;;18.18;79.64;100978.91;5006616;28;45969;-78
2021/08/03 05:57:48;;;;;;;;;11.00;9.25;;;;;18.20;79.37;100981.34;5007933;28;45566;-78
2021/08/03 06:00:14;;;;;;;;;9.00;9.00;;;;;18.21;78.47;100981.19;5011776;28;46385;-78
2021/08/03 06:02:39;;;;;;;;;9.75;9.75;;;;;18.23;79.15;100991.69;5021965;28;45525;-77
2021/08/03 06:05:05;;;;;;;;;11.00;9.75;;;;;18.24;79.12;100986.13;5021842;28;45518;-78
2021/08/03 06:07:40;;;;;;;;;7.50;7.25;;;;;18.26;79.30;100986.78;5021118;28;45466;-75
2021/08/03 06:10:06;;;;;;;;;8.75;8.25;;;;;18.26;79.35;100992.13;5021134;28;45726;-78
2021/08/03 06:12:33;;;;;;;;;10.00;9.50;;;;;18.26;79.74;100989.44;5020139;28;45882;-77
2021/08/03 06:15:01;;;;;;;;;10.50;7.75;;;;;18.27;79.00;100990.25;5023192;28;45553;-76
2021/08/03 06:17:43;;;;;;;;;12.50;10.50;;;;;18.30;79.32;100991.72;5020547;28;45896;-76
2021/08/03 06:20:09;;;;;;;;;12.00;10.00;;;;;18.29;79.30;100993.56;5021498;28;45514;-80
2021/08/03 06:22:36;;;;;;;;;15.00;11.25;;;;;18.31;79.30;100988.88;5007078;28;45448;-79
2021/08/03 06:25:04;;;;;;;;;13.50;11.50;;;;;18.34;79.42;100990.34;5023746;28;45565;-79
2021/08/03 06:27:30;;;;;;;;;11.75;10.50;;;;;18.40;79.59;100995.75;5026577;28;45705;-79
2021/08/03 06:29:56;;;;;;;;;10.25;9.00;;;;;18.45;78.61;101003.19;5003554;28;46199;-78
2021/08/03 06:32:22;;;;;;;;;10.25;8.25;;;;;18.52;79.01;101011.25;5001343;28;46128;-79
2021/08/03 06:34:48;;;;;;;;;10.50;9.75;;;;;18.53;78.64;101008.38;5016529;28;45649;-78
2021/08/03 06:37:14;;;;;;;;;12.50;7.50;;;;;18.57;78.30;101003.47;5021300;28;45820;-79
2021/08/03 06:39:40;;;;;;;;;12.50;11.00;;;;;18.62;78.16;101004.53;5004157;28;47942;-78
2021/08/03 06:42:17;;;;;;;;;11.75;11.00;;;;;18.69;78.38;101013.44;5020937;28;45579;-79
2021/08/03 06:45:01;;;;;;;;;10.75;10.75;;;;;18.78;77.94;101010.63;5004972;28;48761;-79
2021/08/03 06:47:38;;;;;;;;;11.50;10.00;;;;;18.88;77.32;101003.06;5015101;28;45615;-78
2021/08/03 06:50:06;;;;;;;;;12.50;9.75;;;;;19.02;77.51;101006.66;5000628;28;48304;-79
2021/08/03 06:52:35;;;;;;;;;12.25;9.75;;;;;19.16;77.73;101013.72;5000580;28;45479;-79
2021/08/03 06:55:06;;;;;;;;;9.75;8.25;;;;;19.27;77.46;101007.81;5012914;28;45676;-80
2021/08/03 06:57:34;;;;;;;;;11.75;9.50;;;;;19.40;76.89;101009.69;5023975;28;45679;-79
2021/08/03 07:00:08;;;;;;;;;9.75;9.00;;;;;19.50;75.95;101009.31;5021149;28;46498;-77
2021/08/03 07:02:43;;;;;;;;;6.00;4.00;;;;;19.51;74.42;101019.84;5018080;28;45500;-78
2021/08/03 07:05:16;;;;;;;;;7.00;7.00;;;;;19.45;74.54;101023.31;5022473;28;45618;-77
2021/08/03 07:07:42;;;;;;;;;8.50;6.75;;;;;19.41;74.85;101016.72;5020660;28;45643;-79
2021/08/03 07:10:08;;;;;;;;;7.00;7.00;;;;;19.35;75.34;101025.56;5029686;28;46562;-75
2021/08/03 07:12:35;;;;;;;;;10.50;10.25;;;;;19.32;74.66;101029.47;5034577;28;44876;-77
2021/08/03 07:15:00;;;;;;;;;8.25;6.00;;;;;19.25;73.88;101033.16;5012979;28;45483;-77
2021/08/03 07:17:29;;;;;;;;;7.00;6.75;;;;;19.15;73.58;101036.19;5020608;28;45415;-78
2021/08/03 07:19:57;;;;;;;;;6.25;6.25;;;;;19.05;73.97;101025.84;5024408;28;46155;-77
2021/08/03 07:22:24;;;;;;;;;5.00;4.75;;;;;19.02;74.54;101034.28;5029101;28;45509;-77
2021/08/03 07:24:51;;;;;;;;;6.25;4.75;;;;;19.04;74.11;101031.38;5000409;28;45573;-77
2021/08/03 07:27:16;;;;;;;;;5.25;5.25;;;;;19.07;74.35;101036.38;5022061;28;45573;-75
2021/08/03 07:29:42;;;;;;;;;5.00;4.75;;;;;19.15;74.21;101032.69;5025009;28;45776;-83
2021/08/03 07:32:08;;;;;;;;;4.25;2.50;;;;;19.21;73.59;101039.91;5009652;28;45629;-77
2021/08/03 07:34:37;;;;;;;;;5.50;4.50;;;;;19.29;74.33;101039.78;5024541;28;45411;-77
2021/08/03 07:37:04;;;;;;;;;3.25;3.25;;;;;19.31;73.70;101051.09;5020763;28;45596;-77
2021/08/03 07:39:29;;;;;;;;;4.75;4.00;;;;;19.36;73.56;101051.31;5030941;28;45528;-76
2021/08/03 07:41:55;;;;;;;;;4.25;3.75;;;;;19.41;73.13;101058.75;5022274;28;45554;-77
2021/08/03 07:44:21;;;;;;;;;2.50;2.50;;;;;19.50;72.54;101057.56;5025406;28;45527;-77
2021/08/03 07:46:47;;;;;;;;;4.25;3.75;;;;;19.59;72.79;101047.50;5017160;28;45583;-78
2021/08/03 07:49:12;;;;;;;;;3.25;2.75;;;;;19.65;73.63;101054.75;5027171;28;45639;-76
2021/08/03 07:51:37;;;;;;;;;1.75;1.75;;;;;19.71;71.84;101049.44;5030806;28;45788;-75
2021/08/03 07:54:03;;;;;;;;;2.00;2.00;;;;;19.83;72.28;101047.00;5027649;28;45508;-76
2021/08/03 07:56:28;;;;;;;;;3.00;3.00;;;;;20.18;71.36;101060.25;5011191;28;46247;-76
2021/08/03 07:58:53;;;;;;;;;4.25;2.75;;;;;20.55;71.04;101050.00;5027327;28;45675;-76
2021/08/03 08:01:19;;;;;;;;;2.25;2.25;;;;;21.62;70.04;101045.97;5025507;28;45506;-76
2021/08/03 08:03:45;;;;;;;;;1.00;1.00;;;;;24.13;64.91;101048.25;5027162;28;45508;-77
2021/08/03 08:06:11;;;;;;;;;2.25;1.25;;;;;27.07;58.56;101040.91;5009775;28;45711;-76
2021/08/03 08:08:36;;;;;;;;;1.25;1.25;;;;;27.42;54.43;101032.44;5025801;28;45974;-76
2021/08/03 08:11:02;;;;;;;;;1.00;1.00;;;;;27.22;53.98;101037.59;5024643;28;45926;-74
2021/08/03 08:13:27;;;;;;;;;1.50;1.50;;;;;26.90;54.19;101043.66;5023461;28;45943;-76
2021/08/03 08:15:53;;;;;;;;;1.75;1.25;;;;;28.31;54.85;101038.41;5023869;28;46105;-76
2021/08/03 08:18:18;;;;;;;;;2.75;2.75;;;;;31.32;51.82;101033.75;5026232;28;46701;-77
2021/08/03 08:20:45;;;;;;;;;2.75;2.75;;;;;33.29;45.03;101031.44;5024513;28;45620;-76
2021/08/03 08:23:13;;;;;;;;;3.75;2.00;;;;;33.50;42.41;101031.94;5027625;28;45556;-77
2021/08/03 08:25:38;;;;;;;;;2.75;1.75;;;;;35.74;40.77;101031.59;5021023;28;48663;-77
2021/08/03 08:28:05;;;;;;;;;2.75;2.75;;;;;37.95;37.27;101030.84;5007099;28;47071;-77
2021/08/03 08:30:31;;;;;;;;;2.25;2.25;;;;;39.71;34.67;101030.44;5028024;28;46530;-77
2021/08/03 08:32:59;;;;;;;;;1.50;1.50;;;;;41.20;32.35;101039.41;5022958;28;45871;-77
2021/08/03 08:35:25;;;;;;;;;3.25;2.50;;;;;42.09;30.87;101046.69;5027241;28;45881;-77
2021/08/03 08:37:50;;;;;;;;;2.00;2.00;;;;;42.54;29.38;101036.34;5024061;28;46414;-77
2021/08/03 08:40:16;;;;;;;;;1.00;1.00;;;;;43.44;29.08;101043.94;5007790;28;45764;-77
2021/08/03 08:42:43;;;;;;;;;1.00;1.00;;;;;44.27;26.58;101044.34;5026098;28;45655;-77
2021/08/03 08:45:09;;;;;;;;;1.50;1.00;;;;;44.88;25.69;101042.53;5027045;28;45581;-77
2021/08/03 08:47:36;;;;;;;;;1.00;1.00;;;;;45.18;24.16;101048.16;5023777;28;45555;-77
2021/08/03 08:50:06;;;;;;;;;1.75;0.50;;;;;45.70;25.16;101048.38;5026378;28;45546;-77
2021/08/03 08:52:36;;;;;;;;;2.00;2.00;;;;;46.12;23.41;101052.78;5022447;28;45672;-77
2021/08/03 08:55:02;;;;;;;;;1.50;1.50;;;;;46.54;22.68;101060.75;5026370;28;45591;-77
2021/08/03 08:57:28;;;;;;;;;1.75;1.75;;;;;46.93;22.67;101043.44;5009333;28;46631;-77
2021/08/03 08:59:53;;;;;;;;;1.50;1.50;;;;;47.28;21.99;101042.03;5024565;28;46073;-76
2021/08/03 09:02:37;;;;;;;;;2.75;2.00;;;;;47.62;21.31;101049.34;5024844;28;45591;-77
2021/08/03 09:05:03;;;;;;;;;2.50;2.00;;;;;47.04;21.11;101042.69;5007042;28;45782;-77
2021/08/03 09:07:29;;;;;;;;;2.00;1.25;;;;;46.93;21.53;101042.66;5023341;28;46420;-77
2021/08/03 09:09:55;;;;;;;;;2.00;2.00;;;;;47.05;20.32;101050.69;5027621;28;45529;-77
2021/08/03 09:12:33;;;;;;;;;2.25;1.75;;;;;47.06;20.31;101041.13;5028547;28;45535;-77
2021/08/03 09:14:59;;;;;;;;;2.00;1.25;;;;;46.25;19.88;101045.75;5021076;28;45440;-77
2021/08/03 09:17:30;;;;;;;;;1.00;1.00;;;;;44.86;20.95;101047.69;5023506;28;45761;-77
2021/08/03 09:19:56;;;;;;;;;1.00;1.00;;;;;43.68;21.07;101038.09;5023325;28;45931;-77
2021/08/03 09:22:24;;;;;;;;;0.75;0.75;;;;;43.11;21.97;101040.44;5025257;28;45542;-77
2021/08/03 09:24:52;;;;;;;;;1.00;1.00;;;;;40.95;24.16;101049.72;5009588;28;45514;-77
2021/08/03 09:27:31;;;;;;;;;1.00;1.00;;;;;38.47;25.06;101039.03;5027254;28;45695;-77
2021/08/03 09:29:57;;;;;;;;;1.00;1.00;;;;;36.65;27.17;101039.75;5026814;28;45588;-77
2021/08/03 09:32:30;;;;;;;;;1.00;1.00;;;;;35.48;28.50;101030.53;5009446;28;45506;-77
2021/08/03 09:35:14;;;;;;;;;1.00;1.00;;;;;36.46;28.80;101040.78;5023828;28;45781;-77
2021/08/03 09:37:41;;;;;;;;;2.00;0.50;;;;;37.85;27.05;101041.06;5001808;28;47552;-77
2021/08/03 09:40:21;;;;;;;;;1.00;1.00;;;;;36.99;26.18;101042.63;5006735;28;48336;-78
2021/08/03 09:43:07;;;;;;;;;3.00;1.25;;;;;34.90;28.78;101046.59;5022537;28;45688;-79
2021/08/03 09:45:54;;;;;;;;;1.00;0.00;;;;;33.35;30.65;101045.88;5027410;28;45536;-80
2021/08/03 09:48:22;;;;;;;;;1.25;1.25;;;;;32.00;32.77;101047.56;5026949;28;45906;-75
2021/08/03 09:50:51;;;;;;;;;1.00;1.00;;;;;31.03;34.32;101043.44;5022840;28;46594;-78
2021/08/03 09:53:44;;;;;;;;;1.25;1.25;;;;;30.16;35.90;101040.81;5003445;28;45545;-78
2021/08/03 09:56:12;;;;;;;;;2.00;2.00;;;;;29.83;35.68;101042.16;5022661;28;45788;-79
2021/08/03 09:58:59;;;;;;;;;0.00;0.00;;;;;29.83;36.55;101033.19;5022588;28;45756;-76
2021/08/03 10:01:35;;;;;;;;;1.00;1.00;;;;;29.65;35.98;101035.31;5019704;28;45776;-76
2021/08/03 10:04:09;;;;;;;;;2.00;2.00;;;;;29.30;36.37;101034.13;5023289;28;45641;-77
2021/08/03 10:06:36;;;;;;;;;1.50;1.00;;;;;29.00;37.02;101028.53;5027170;28;45818;-77
2021/08/03 10:09:04;;;;;;;;;1.00;1.00;;;;;28.98;36.95;101028.81;5022655;28;45569;-76
2021/08/03 10:11:29;;;;;;;;;2.00;1.75;;;;;28.82;37.41;101027.91;5023140;28;45594;-77
2021/08/03 10:13:56;;;;;;;;;3.00;1.25;;;;;28.66;37.35;101029.72;5021210;28;45439;-81
2021/08/03 10:16:23;;;;;;;;;1.25;1.25;;;;;28.44;36.74;101024.41;5008246;28;46052;-77
2021/08/03 10:18:50;;;;;;;;;4.25;4.00;;;;;28.30;38.35;101036.78;5007792;28;48526;-77
2021/08/03 10:21:28;;;;;;;;;5.75;3.50;;;;;28.08;37.93;101032.25;5025427;28;45651;-74
2021/08/03 10:23:57;;;;;;;;;3.75;3.75;;;;;28.06;39.07;101037.13;5023363;28;45883;-76
2021/08/03 10:26:23;;;;;;;;;5.00;3.00;;;;;28.54;39.60;101033.72;5021577;28;45467;-76
2021/08/03 10:28:49;;;;;;;;;4.00;2.25;;;;;28.65;39.58;101038.16;5016229;28;47185;-77
2021/08/03 10:31:40;;;;;;;;;3.00;3.00;;;;;28.88;39.14;101028.75;5006112;28;45494;-78
2021/08/03 10:34:06;;;;;;;;;4.00;4.00;;;;;29.63;38.77;101026.59;5001419;28;45481;-78
2021/08/03 10:36:39;;;;;;;;;5.00;4.00;;;;;30.03;37.16;101019.56;5025116;28;45535;-79
2021/08/03 10:39:08;;;;;;;;;3.00;3.00;;;;;29.84;36.48;101013.84;5018108;28;45578;-76
2021/08/03 10:41:59;;;;;;;;;2.25;2.25;;;;;29.32;37.24;101021.06;5015801;28;45624;-79
2021/08/03 10:44:41;;;;;;;;;4.00;3.50;;;;;28.70;38.36;101024.56;5014676;28;45688;-78
2021/08/03 10:47:34;;;;;;;;;5.75;4.25;;;;;28.22;39.46;101020.97;5018243;28;45467;-79
2021/08/03 10:50:29;;;;;;;;;4.25;3.25;;;;;27.92;40.07;101019.66;5018567;28;45587;-78
2021/08/03 10:52:57;;;;;;;;;3.75;3.75;;;;;27.60;39.73;101020.41;5020921;28;45416;-78
2021/08/03 10:55:44;;;;;;;;;4.50;3.25;;;;;27.26;40.09;101017.03;5004456;28;46659;-78
2021/08/03 10:58:16;;;;;;;;;3.25;3.25;;;;;26.92;40.71;101024.44;5022573;28;45729;-78
2021/08/03 11:00:42;;;;;;;;;3.00;3.00;;;;;26.55;41.35;101015.00;5028155;28;46080;-78
2021/08/03 11:03:40;;;;;;;;;4.00;2.00;;;;;26.12;42.58;101031.91;5024222;28;45607;-78
2021/08/03 11:06:06;;;;;;;;;3.00;3.00;;;;;25.84;43.77;101021.91;4931773;28;45573;-78
2021/08/03 11:08:40;;;;;;;;;3.75;3.75;;;;;26.05;43.52;101026.66;4927406;28;45850;-78
2021/08/03 11:11:12;;;;;;;;;5.00;4.00;;;;;26.90;42.83;101015.75;4936291;28;45510;-78
2021/08/03 11:13:38;;;;;;;;;4.50;3.50;;;;;28.01;41.96;101028.94;4942739;28;45446;-78
2021/08/03 11:16:09;;;;;;;;;4.50;2.75;;;;;29.10;40.70;101017.72;4927080;28;45697;-78
2021/08/03 11:18:40;;;;;;;;;2.75;2.75;;;;;29.95;37.93;101020.13;4935543;28;45538;-78
2021/08/03 11:21:06;;;;;;;;;3.75;3.75;;;;;29.95;33.93;101028.28;4943176;28;46843;-78
2021/08/03 11:23:53;;;;;;;;;3.25;3.25;;;;;29.95;38.37;101020.13;4940758;28;45725;-78
2021/08/03 11:26:20;;;;;;;;;2.25;2.25;;;;;30.29;37.51;101011.38;4940054;28;45633;-78
2021/08/03 11:28:57;;;;;;;;;3.50;2.25;;;;;30.26;38.39;101011.94;4938208;28;45938;-79
2021/08/03 11:31:43;;;;;;;;;6.00;4.00;;;;;30.12;37.73;101015.22;4944484;28;47487;-78